sensor_id;sensor_type;location;lat;lon;timestamp;temperature;humidity
19654;DHT22;9975;48.046;7.804;2023-06-01T01:56:31;12.60;92.80
19654;DHT22;9975;48.046;7.804;2023-06-01T01:58:57;12.60;93.40
19654;DHT22;9975;48.046;7.804;2023-06-01T02:01:24;12.60;94.00
19654;DHT22;9975;48.046;7.804;2023-06-01T02:04:03;12.60;94.90
19654;DHT22;9975;48.046;7.804;2023-06-01T02:06:29;12.60;94.00
19654;DHT22;9975;48.046;7.804;2023-06-01T02:08:56;12.60;95.60
19654;DHT22;9975;48.046;7.804;2023-06-01T02:11:21;12.60;95.20
19654;DHT22;9975;48.046;7.804;2023-06-01T02:13:47;12.60;95.40
19654;DHT22;9975;48.046;7.804;2023-06-01T02:16:13;12.50;95.00
19654;DHT22;9975;48.046;7.804;2023-06-01T02:18:39;12.50;95.70
19654;DHT22;9975;48.046;7.804;2023-06-01T02:21:07;12.40;95.50
19654;DHT22;9975;48.046;7.804;2023-06-01T02:23:34;12.40;95.80
19654;DHT22;9975;48.046;7.804;2023-06-01T02:26:00;12.40;96.30
19654;DHT22;9975;48.046;7.804;2023-06-01T02:28:26;12.40;97.20
19654;DHT22;9975;48.046;7.804;2023-06-01T02:30:51;12.50;96.80
19654;DHT22;9975;48.046;7.804;2023-06-01T02:33:17;12.40;96.20
19654;DHT22;9975;48.046;7.804;2023-06-01T02:35:42;12.40;97.20
19654;DHT22;9975;48.046;7.804;2023-06-01T02:38:08;12.40;96.90
19654;DHT22;9975;48.046;7.804;2023-06-01T02:40:33;12.40;95.90
19654;DHT22;9975;48.046;7.804;2023-06-01T02:42:59;12.30;96.20
19654;DHT22;9975;48.046;7.804;2023-06-01T02:45:25;12.20;96.60
19654;DHT22;9975;48.046;7.804;2023-06-01T02:47:50;12.20;98.10
19654;DHT22;9975;48.046;7.804;2023-06-01T02:50:16;12.20;97.80
19654;DHT22;9975;48.046;7.804;2023-06-01T02:52:42;12.10;99.10
19654;DHT22;9975;48.046;7.804;2023-06-01T02:55:07;12.00;98.70
19654;DHT22;9975;48.046;7.804;2023-06-01T02:57:33;12.00;98.60
19654;DHT22;9975;48.046;7.804;2023-06-01T02:59:59;11.90;99.20
19654;DHT22;9975;48.046;7.804;2023-06-01T03:02:25;11.90;99.90
19654;DHT22;9975;48.046;7.804;2023-06-01T03:04:51;11.90;99.90
19654;DHT22;9975;48.046;7.804;2023-06-01T03:07:17;11.80;99.90
19654;DHT22;9975;48.046;7.804;2023-06-01T03:09:43;11.70;99.90
19654;DHT22;9975;48.046;7.804;2023-06-01T03:12:09;11.60;99.90
19654;DHT22;9975;48.046;7.804;2023-06-01T03:14:35;11.60;99.90
19654;DHT22;9975;48.046;7.804;2023-06-01T03:17:01;11.60;99.90
19654;DHT22;9975;48.046;7.804;2023-06-01T03:19:27;11.60;99.90
19654;DHT22;9975;48.046;7.804;2023-06-01T03:21:52;11.60;99.90
19654;DHT22;9975;48.046;7.804;2023-06-01T03:24:18;11.60;99.90
19654;DHT22;9975;48.046;7.804;2023-06-01T03:26:44;11.60;99.90
19654;DHT22;9975;48.046;7.804;2023-06-01T03:29:09;11.60;99.90
19654;DHT22;9975;48.046;7.804;2023-06-01T03:31:35;11.60;99.90
19654;DHT22;9975;48.046;7.804;2023-06-01T03:34:01;11.60;99.90
19654;DHT22;9975;48.046;7.804;2023-06-01T03:36:27;11.60;99.90
19654;DHT22;9975;48.046;7.804;2023-06-01T03:38:53;11.60;99.90
19654;DHT22;9975;48.046;7.804;2023-06-01T03:41:19;11.60;99.90
19654;DHT22;9975;48.046;7.804;2023-06-01T03:43:45;11.60;99.90
19654;DHT22;9975;48.046;7.804;2023-06-01T03:46:11;11.60;99.90
19654;DHT22;9975;48.046;7.804;2023-06-01T03:48:36;11.60;99.90
19654;DHT22;9975;48.046;7.804;2023-06-01T03:51:02;11.50;99.90
19654;DHT22;9975;48.046;7.804;2023-06-01T03:53:28;11.50;99.90
19654;DHT22;9975;48.046;7.804;2023-06-01T03:55:56;11.60;99.90
19654;DHT22;9975;48.046;7.804;2023-06-01T03:58:22;11.60;99.90
19654;DHT22;9975;48.046;7.804;2023-06-01T04:00:48;11.60;99.90
19654;DHT22;9975;48.046;7.804;2023-06-01T04:03:15;11.60;99.90
19654;DHT22;9975;48.046;7.804;2023-06-01T04:05:41;11.60;99.90
19654;DHT22;9975;48.046;7.804;2023-06-01T04:08:06;11.60;99.90
19654;DHT22;9975;48.046;7.804;2023-06-01T04:10:34;11.70;99.90
19654;DHT22;9975;48.046;7.804;2023-06-01T04:12:59;11.60;99.90
19654;DHT22;9975;48.046;7.804;2023-06-01T04:15:25;11.60;99.90
19654;DHT22;9975;48.046;7.804;2023-06-01T04:17:51;11.60;99.90
19654;DHT22;9975;48.046;7.804;2023-06-01T04:20:17;11.70;99.90
19654;DHT22;9975;48.046;7.804;2023-06-01T04:22:44;11.70;99.90
19654;DHT22;9975;48.046;7.804;2023-06-01T04:25:13;11.70;99.90
19654;DHT22;9975;48.046;7.804;2023-06-01T04:27:47;11.80;99.90
19654;DHT22;9975;48.046;7.804;2023-06-01T04:30:13;11.90;99.90
19654;DHT22;9975;48.046;7.804;2023-06-01T04:32:40;11.90;99.90
19654;DHT22;9975;48.046;7.804;2023-06-01T04:35:09;11.90;99.90
19654;DHT22;9975;48.046;7.804;2023-06-01T04:37:36;12.00;99.90
19654;DHT22;9975;48.046;7.804;2023-06-01T04:40:02;12.00;99.90
19654;DHT22;9975;48.046;7.804;2023-06-01T04:42:38;12.20;99.90
19654;DHT22;9975;48.046;7.804;2023-06-01T04:45:06;12.20;99.90
19654;DHT22;9975;48.046;7.804;2023-06-01T04:47:33;12.30;99.90
19654;DHT22;9975;48.046;7.804;2023-06-01T04:50:07;12.30;99.90
19654;DHT22;9975;48.046;7.804;2023-06-01T04:52:38;12.40;99.90
19654;DHT22;9975;48.046;7.804;2023-06-01T04:55:05;12.40;99.90
19654;DHT22;9975;48.046;7.804;2023-06-01T04:57:31;12.40;99.90
19654;DHT22;9975;48.046;7.804;2023-06-01T04:59:58;12.50;99.90
19654;DHT22;9975;48.046;7.804;2023-06-01T05:02:25;12.60;99.90
19654;DHT22;9975;48.046;7.804;2023-06-01T05:04:51;12.70;99.90
19654;DHT22;9975;48.046;7.804;2023-06-01T05:07:16;12.70;99.90
19654;DHT22;9975;48.046;7.804;2023-06-01T05:09:42;12.80;99.90
19654;DHT22;9975;48.046;7.804;2023-06-01T05:12:08;12.80;99.90
19654;DHT22;9975;48.046;7.804;2023-06-01T05:14:34;12.80;99.90
19654;DHT22;9975;48.046;7.804;2023-06-01T05:17:00;12.90;99.90
19654;DHT22;9975;48.046;7.804;2023-06-01T05:19:25;13.00;99.90
19654;DHT22;9975;48.046;7.804;2023-06-01T05:21:51;13.00;99.90
19654;DHT22;9975;48.046;7.804;2023-06-01T05:24:18;13.10;99.90
19654;DHT22;9975;48.046;7.804;2023-06-01T05:26:44;13.20;99.90
19654;DHT22;9975;48.046;7.804;2023-06-01T05:29:10;13.20;99.90
19654;DHT22;9975;48.046;7.804;2023-06-01T05:31:35;13.30;99.90
19654;DHT22;9975;48.046;7.804;2023-06-01T05:34:01;13.40;99.90
19654;DHT22;9975;48.046;7.804;2023-06-01T05:36:27;13.50;99.90
19654;DHT22;9975;48.046;7.804;2023-06-01T05:38:53;13.50;99.50
19654;DHT22;9975;48.046;7.804;2023-06-01T05:41:18;13.60;99.70
19654;DHT22;9975;48.046;7.804;2023-06-01T05:43:44;13.60;98.80
19654;DHT22;9975;48.046;7.804;2023-06-01T05:46:10;13.70;98.30
19654;DHT22;9975;48.046;7.804;2023-06-01T05:48:35;13.80;98.20
19654;DHT22;9975;48.046;7.804;2023-06-01T05:51:01;13.90;97.90
19654;DHT22;9975;48.046;7.804;2023-06-01T05:53:27;14.00;97.80
19654;DHT22;9975;48.046;7.804;2023-06-01T05:55:53;14.10;97.70
19654;DHT22;9975;48.046;7.804;2023-06-01T05:58:18;14.20;97.30
19654;DHT22;9975;48.046;7.804;2023-06-01T06:00:44;14.30;96.60
19654;DHT22;9975;48.046;7.804;2023-06-01T06:03:10;14.40;96.30
19654;DHT22;9975;48.046;7.804;2023-06-01T06:05:36;14.50;95.90
19654;DHT22;9975;48.046;7.804;2023-06-01T06:08:02;14.60;95.00
19654;DHT22;9975;48.046;7.804;2023-06-01T06:10:28;14.70;94.50
19654;DHT22;9975;48.046;7.804;2023-06-01T06:12:53;14.80;94.00
19654;DHT22;9975;48.046;7.804;2023-06-01T06:15:19;14.80;93.60
19654;DHT22;9975;48.046;7.804;2023-06-01T06:17:44;14.90;93.70
19654;DHT22;9975;48.046;7.804;2023-06-01T06:20:11;15.00;93.50
19654;DHT22;9975;48.046;7.804;2023-06-01T06:22:37;15.10;93.10
19654;DHT22;9975;48.046;7.804;2023-06-01T06:25:04;15.20;93.30
19654;DHT22;9975;48.046;7.804;2023-06-01T06:27:30;15.30;92.00
19654;DHT22;9975;48.046;7.804;2023-06-01T06:29:55;15.40;92.00
19654;DHT22;9975;48.046;7.804;2023-06-01T06:32:21;15.50;91.90
19654;DHT22;9975;48.046;7.804;2023-06-01T06:34:47;15.50;91.40
19654;DHT22;9975;48.046;7.804;2023-06-01T06:37:13;15.70;90.50
19654;DHT22;9975;48.046;7.804;2023-06-01T06:39:38;15.80;90.70
19654;DHT22;9975;48.046;7.804;2023-06-01T06:42:07;15.90;90.40
19654;DHT22;9975;48.046;7.804;2023-06-01T06:44:34;16.00;90.00
19654;DHT22;9975;48.046;7.804;2023-06-01T06:46:59;16.10;89.40
19654;DHT22;9975;48.046;7.804;2023-06-01T06:49:28;16.20;88.80
19654;DHT22;9975;48.046;7.804;2023-06-01T06:51:53;16.20;87.80
19654;DHT22;9975;48.046;7.804;2023-06-01T06:54:19;16.40;89.00
19654;DHT22;9975;48.046;7.804;2023-06-01T06:56:45;16.50;88.50
19654;DHT22;9975;48.046;7.804;2023-06-01T06:59:10;16.70;87.80
19654;DHT22;9975;48.046;7.804;2023-06-01T07:01:36;16.80;83.80
19654;DHT22;9975;48.046;7.804;2023-06-01T07:04:04;16.80;83.60
19654;DHT22;9975;48.046;7.804;2023-06-01T07:06:31;17.00;84.80
19654;DHT22;9975;48.046;7.804;2023-06-01T07:08:58;17.10;83.90
19654;DHT22;9975;48.046;7.804;2023-06-01T07:11:24;17.30;83.00
19654;DHT22;9975;48.046;7.804;2023-06-01T07:13:52;17.30;82.80
19654;DHT22;9975;48.046;7.804;2023-06-01T07:16:18;17.60;83.10
19654;DHT22;9975;48.046;7.804;2023-06-01T07:18:43;17.80;82.30
19654;DHT22;9975;48.046;7.804;2023-06-01T07:21:09;18.20;81.70
19654;DHT22;9975;48.046;7.804;2023-06-01T07:23:34;18.30;79.60
19654;DHT22;9975;48.046;7.804;2023-06-01T07:26:01;18.40;78.20
19654;DHT22;9975;48.046;7.804;2023-06-01T07:28:26;18.50;75.00
19654;DHT22;9975;48.046;7.804;2023-06-01T07:30:55;18.70;75.30
19654;DHT22;9975;48.046;7.804;2023-06-01T07:33:20;18.80;72.80
19654;DHT22;9975;48.046;7.804;2023-06-01T07:35:48;19.00;71.90
19654;DHT22;9975;48.046;7.804;2023-06-01T07:38:18;19.00;69.10
19654;DHT22;9975;48.046;7.804;2023-06-01T07:40:45;19.10;68.80
19654;DHT22;9975;48.046;7.804;2023-06-01T07:43:11;19.00;68.20
19654;DHT22;9975;48.046;7.804;2023-06-01T07:45:38;19.10;68.30
19654;DHT22;9975;48.046;7.804;2023-06-01T07:48:04;19.40;66.80
19654;DHT22;9975;48.046;7.804;2023-06-01T07:50:30;19.30;66.30
19654;DHT22;9975;48.046;7.804;2023-06-01T07:52:57;19.30;63.40
19654;DHT22;9975;48.046;7.804;2023-06-01T07:55:23;19.40;63.10
19654;DHT22;9975;48.046;7.804;2023-06-01T07:57:49;19.50;63.70
19654;DHT22;9975;48.046;7.804;2023-06-01T08:00:15;19.60;64.70
19654;DHT22;9975;48.046;7.804;2023-06-01T08:02:43;19.90;62.80
19654;DHT22;9975;48.046;7.804;2023-06-01T08:05:09;20.10;62.20
19654;DHT22;9975;48.046;7.804;2023-06-01T08:07:35;20.40;61.40
19654;DHT22;9975;48.046;7.804;2023-06-01T08:10:06;20.70;62.00
19654;DHT22;9975;48.046;7.804;2023-06-01T08:12:34;20.70;60.10
19654;DHT22;9975;48.046;7.804;2023-06-01T08:15:01;20.50;59.40
19654;DHT22;9975;48.046;7.804;2023-06-01T08:17:26;20.60;59.60
19654;DHT22;9975;48.046;7.804;2023-06-01T08:19:52;20.50;59.90
19654;DHT22;9975;48.046;7.804;2023-06-01T08:22:19;20.80;60.40
19654;DHT22;9975;48.046;7.804;2023-06-01T08:24:45;21.10;59.20
19654;DHT22;9975;48.046;7.804;2023-06-01T08:27:19;21.20;59.30
19654;DHT22;9975;48.046;7.804;2023-06-01T08:29:46;21.10;59.60
19654;DHT22;9975;48.046;7.804;2023-06-01T08:32:13;21.20;59.60
19654;DHT22;9975;48.046;7.804;2023-06-01T08:34:38;21.20;60.80
19654;DHT22;9975;48.046;7.804;2023-06-01T08:37:04;21.30;61.30
19654;DHT22;9975;48.046;7.804;2023-06-01T08:39:30;21.50;59.90
19654;DHT22;9975;48.046;7.804;2023-06-01T08:44:41;21.60;57.90
19654;DHT22;9975;48.046;7.804;2023-06-01T08:47:07;21.80;58.10
19654;DHT22;9975;48.046;7.804;2023-06-01T08:49:34;22.10;58.20
19654;DHT22;9975;48.046;7.804;2023-06-01T08:52:08;22.40;56.20
19654;DHT22;9975;48.046;7.804;2023-06-01T08:54:35;22.30;55.70
19654;DHT22;9975;48.046;7.804;2023-06-01T08:57:05;22.60;56.30
19654;DHT22;9975;48.046;7.804;2023-06-01T08:59:34;22.80;53.80
19654;DHT22;9975;48.046;7.804;2023-06-01T09:02:00;23.00;54.30
19654;DHT22;9975;48.046;7.804;2023-06-01T09:04:26;23.30;52.70
19654;DHT22;9975;48.046;7.804;2023-06-01T09:06:52;23.10;51.20
19654;DHT22;9975;48.046;7.804;2023-06-01T09:09:18;23.00;50.80
19654;DHT22;9975;48.046;7.804;2023-06-01T09:11:44;23.20;51.10
19654;DHT22;9975;48.046;7.804;2023-06-01T09:14:24;23.40;51.50
19654;DHT22;9975;48.046;7.804;2023-06-01T09:16:51;23.80;50.90
19654;DHT22;9975;48.046;7.804;2023-06-01T09:19:17;23.90;49.20
19654;DHT22;9975;48.046;7.804;2023-06-01T09:21:56;23.80;49.00
19654;DHT22;9975;48.046;7.804;2023-06-01T09:24:23;24.00;47.80
19654;DHT22;9975;48.046;7.804;2023-06-01T09:26:49;23.90;48.00
19654;DHT22;9975;48.046;7.804;2023-06-01T09:29:15;24.00;47.70
19654;DHT22;9975;48.046;7.804;2023-06-01T09:31:44;24.20;46.60
19654;DHT22;9975;48.046;7.804;2023-06-01T09:34:17;24.70;45.80
19654;DHT22;9975;48.046;7.804;2023-06-01T09:36:53;24.80;44.90
19654;DHT22;9975;48.046;7.804;2023-06-01T09:39:21;25.00;44.00
19654;DHT22;9975;48.046;7.804;2023-06-01T09:44:32;25.00;44.50
19654;DHT22;9975;48.046;7.804;2023-06-01T09:47:03;25.60;42.50
19654;DHT22;9975;48.046;7.804;2023-06-01T09:49:42;25.40;41.50
19654;DHT22;9975;48.046;7.804;2023-06-01T09:52:12;25.20;41.00
19654;DHT22;9975;48.046;7.804;2023-06-01T09:54:45;25.70;42.00
19654;DHT22;9975;48.046;7.804;2023-06-01T09:57:12;25.80;41.50
19654;DHT22;9975;48.046;7.804;2023-06-01T09:59:45;25.80;40.40
19654;DHT22;9975;48.046;7.804;2023-06-01T10:02:14;25.80;41.10
19654;DHT22;9975;48.046;7.804;2023-06-01T10:04:42;25.60;40.50
19654;DHT22;9975;48.046;7.804;2023-06-01T10:07:10;26.00;40.20
19654;DHT22;9975;48.046;7.804;2023-06-01T10:09:38;26.40;40.30
19654;DHT22;9975;48.046;7.804;2023-06-01T10:12:06;26.80;40.60
19654;DHT22;9975;48.046;7.804;2023-06-01T10:14:32;27.20;39.00
19654;DHT22;9975;48.046;7.804;2023-06-01T10:16:59;27.10;38.10
19654;DHT22;9975;48.046;7.804;2023-06-01T10:19:25;27.00;37.90
19654;DHT22;9975;48.046;7.804;2023-06-01T10:21:51;27.20;37.00
19654;DHT22;9975;48.046;7.804;2023-06-01T10:24:18;27.40;37.90
19654;DHT22;9975;48.046;7.804;2023-06-01T10:29:32;27.80;35.50
19654;DHT22;9975;48.046;7.804;2023-06-01T10:31:58;27.90;35.90
19654;DHT22;9975;48.046;7.804;2023-06-01T10:34:41;28.00;34.80
19654;DHT22;9975;48.046;7.804;2023-06-01T10:39:34;27.70;36.60
19654;DHT22;9975;48.046;7.804;2023-06-01T10:44:48;27.80;34.80
19654;DHT22;9975;48.046;7.804;2023-06-01T10:52:29;29.40;32.60
19654;DHT22;9975;48.046;7.804;2023-06-01T10:57:42;29.90;31.00
19654;DHT22;9975;48.046;7.804;2023-06-01T11:00:22;29.50;29.90
19654;DHT22;9975;48.046;7.804;2023-06-01T11:03:01;28.90;30.50
19654;DHT22;9975;48.046;7.804;2023-06-01T11:07:59;28.80;31.30
19654;DHT22;9975;48.046;7.804;2023-06-01T11:11:00;29.30;31.60
19654;DHT22;9975;48.046;7.804;2023-06-01T11:13:32;29.90;30.70
19654;DHT22;9975;48.046;7.804;2023-06-01T11:18:43;30.80;28.20
19654;DHT22;9975;48.046;7.804;2023-06-01T11:21:20;31.10;27.80
19654;DHT22;9975;48.046;7.804;2023-06-01T11:23:54;31.30;27.30
19654;DHT22;9975;48.046;7.804;2023-06-01T11:26:23;31.40;26.80
19654;DHT22;9975;48.046;7.804;2023-06-01T11:28:51;31.70;26.80
19654;DHT22;9975;48.046;7.804;2023-06-01T11:31:19;31.20;25.80
19654;DHT22;9975;48.046;7.804;2023-06-01T11:33:53;31.40;25.60
19654;DHT22;9975;48.046;7.804;2023-06-01T11:36:23;31.80;25.60
19654;DHT22;9975;48.046;7.804;2023-06-01T11:38:53;31.70;24.40
19654;DHT22;9975;48.046;7.804;2023-06-01T11:41:22;31.30;26.00
19654;DHT22;9975;48.046;7.804;2023-06-01T11:43:56;30.70;24.90
19654;DHT22;9975;48.046;7.804;2023-06-01T11:46:22;30.50;26.20
19654;DHT22;9975;48.046;7.804;2023-06-01T11:51:30;30.60;25.30
19654;DHT22;9975;48.046;7.804;2023-06-01T11:53:57;30.40;24.70
19654;DHT22;9975;48.046;7.804;2023-06-01T11:56:33;30.30;24.60
19654;DHT22;9975;48.046;7.804;2023-06-01T11:59:03;30.40;24.30
19654;DHT22;9975;48.046;7.804;2023-06-01T12:01:42;30.40;24.00
19654;DHT22;9975;48.046;7.804;2023-06-01T12:04:19;30.40;25.30
19654;DHT22;9975;48.046;7.804;2023-06-01T12:06:45;30.20;24.30
19654;DHT22;9975;48.046;7.804;2023-06-01T12:09:12;30.10;25.10
19654;DHT22;9975;48.046;7.804;2023-06-01T12:11:39;30.50;25.00
19654;DHT22;9975;48.046;7.804;2023-06-01T12:14:06;30.40;24.50
19654;DHT22;9975;48.046;7.804;2023-06-01T12:16:51;30.70;25.10
19654;DHT22;9975;48.046;7.804;2023-06-01T12:19:17;30.80;24.90
19654;DHT22;9975;48.046;7.804;2023-06-01T12:21:47;31.20;23.80
19654;DHT22;9975;48.046;7.804;2023-06-01T12:24:14;30.90;24.10
19654;DHT22;9975;48.046;7.804;2023-06-01T12:26:40;31.30;23.20
19654;DHT22;9975;48.046;7.804;2023-06-01T12:29:06;31.30;23.60
19654;DHT22;9975;48.046;7.804;2023-06-01T12:31:32;31.70;24.10
19654;DHT22;9975;48.046;7.804;2023-06-01T12:33:57;31.90;22.50
19654;DHT22;9975;48.046;7.804;2023-06-01T12:36:36;32.10;22.00
19654;DHT22;9975;48.046;7.804;2023-06-01T12:39:03;32.70;21.80
19654;DHT22;9975;48.046;7.804;2023-06-01T12:41:30;32.90;21.70
19654;DHT22;9975;48.046;7.804;2023-06-01T12:43:57;33.00;21.50
19654;DHT22;9975;48.046;7.804;2023-06-01T12:46:25;33.20;21.20
19654;DHT22;9975;48.046;7.804;2023-06-01T12:48:52;33.30;20.30
19654;DHT22;9975;48.046;7.804;2023-06-01T12:51:19;33.00;19.10
19654;DHT22;9975;48.046;7.804;2023-06-01T12:53:45;32.50;19.90
19654;DHT22;9975;48.046;7.804;2023-06-01T12:56:12;31.70;20.30
19654;DHT22;9975;48.046;7.804;2023-06-01T12:58:38;31.30;20.90
19654;DHT22;9975;48.046;7.804;2023-06-01T13:01:04;31.20;22.20
19654;DHT22;9975;48.046;7.804;2023-06-01T13:03:31;31.90;22.20
19654;DHT22;9975;48.046;7.804;2023-06-01T13:05:56;32.00;20.80
19654;DHT22;9975;48.046;7.804;2023-06-01T13:08:23;32.60;21.70
19654;DHT22;9975;48.046;7.804;2023-06-01T13:10:49;33.20;19.90
19654;DHT22;9975;48.046;7.804;2023-06-01T13:13:15;33.60;19.50
19654;DHT22;9975;48.046;7.804;2023-06-01T13:15:44;33.30;18.90
19654;DHT22;9975;48.046;7.804;2023-06-01T13:18:13;33.20;18.40
19654;DHT22;9975;48.046;7.804;2023-06-01T13:20:38;33.00;19.10
19654;DHT22;9975;48.046;7.804;2023-06-01T13:23:07;32.70;19.00
19654;DHT22;9975;48.046;7.804;2023-06-01T13:25:34;32.60;19.90
19654;DHT22;9975;48.046;7.804;2023-06-01T13:28:00;33.40;20.20
19654;DHT22;9975;48.046;7.804;2023-06-01T13:30:26;33.90;18.90
19654;DHT22;9975;48.046;7.804;2023-06-01T13:32:53;33.90;17.80
19654;DHT22;9975;48.046;7.804;2023-06-01T13:35:18;34.30;18.10
19654;DHT22;9975;48.046;7.804;2023-06-01T13:37:44;33.90;17.50
19654;DHT22;9975;48.046;7.804;2023-06-01T13:40:10;34.10;17.40
19654;DHT22;9975;48.046;7.804;2023-06-01T13:42:36;33.30;18.30
19654;DHT22;9975;48.046;7.804;2023-06-01T13:45:01;33.10;18.20
19654;DHT22;9975;48.046;7.804;2023-06-01T13:47:27;33.30;18.10
19654;DHT22;9975;48.046;7.804;2023-06-01T13:49:53;32.80;17.60
19654;DHT22;9975;48.046;7.804;2023-06-01T13:52:18;32.70;18.30
19654;DHT22;9975;48.046;7.804;2023-06-01T13:54:44;32.60;18.60
19654;DHT22;9975;48.046;7.804;2023-06-01T13:57:10;33.10;18.00
19654;DHT22;9975;48.046;7.804;2023-06-01T13:59:36;33.30;17.90
19654;DHT22;9975;48.046;7.804;2023-06-01T14:02:03;33.50;17.90
19654;DHT22;9975;48.046;7.804;2023-06-01T14:04:31;33.70;18.30
19654;DHT22;9975;48.046;7.804;2023-06-01T14:06:57;33.70;17.40
19654;DHT22;9975;48.046;7.804;2023-06-01T14:09:23;33.90;17.20
19654;DHT22;9975;48.046;7.804;2023-06-01T14:11:49;34.00;16.70
19654;DHT22;9975;48.046;7.804;2023-06-01T14:14:15;34.20;17.40
19654;DHT22;9975;48.046;7.804;2023-06-01T14:16:41;34.30;16.30
19654;DHT22;9975;48.046;7.804;2023-06-01T14:19:06;33.60;16.40
19654;DHT22;9975;48.046;7.804;2023-06-01T14:21:32;33.70;16.70
19654;DHT22;9975;48.046;7.804;2023-06-01T14:24:00;33.50;17.10
19654;DHT22;9975;48.046;7.804;2023-06-01T14:26:26;33.50;17.50
19654;DHT22;9975;48.046;7.804;2023-06-01T14:28:52;32.90;17.00
19654;DHT22;9975;48.046;7.804;2023-06-01T14:31:18;32.60;17.20
19654;DHT22;9975;48.046;7.804;2023-06-01T14:33:45;32.30;17.60
19654;DHT22;9975;48.046;7.804;2023-06-01T14:36:11;32.50;18.20
19654;DHT22;9975;48.046;7.804;2023-06-01T14:38:37;32.80;17.60
19654;DHT22;9975;48.046;7.804;2023-06-01T14:41:02;33.20;18.00
19654;DHT22;9975;48.046;7.804;2023-06-01T14:43:28;33.60;17.50
19654;DHT22;9975;48.046;7.804;2023-06-01T14:45:58;33.50;16.70
19654;DHT22;9975;48.046;7.804;2023-06-01T14:48:24;33.70;17.30
19654;DHT22;9975;48.046;7.804;2023-06-01T14:50:50;33.50;17.00
19654;DHT22;9975;48.046;7.804;2023-06-01T14:53:16;33.60;16.40
19654;DHT22;9975;48.046;7.804;2023-06-01T14:55:42;33.70;16.30
19654;DHT22;9975;48.046;7.804;2023-06-01T14:58:08;33.90;16.30
19654;DHT22;9975;48.046;7.804;2023-06-01T15:00:35;33.90;15.60
19654;DHT22;9975;48.046;7.804;2023-06-01T15:03:01;33.80;16.00
19654;DHT22;9975;48.046;7.804;2023-06-01T15:05:27;33.40;16.20
19654;DHT22;9975;48.046;7.804;2023-06-01T15:07:52;33.20;16.60
19654;DHT22;9975;48.046;7.804;2023-06-01T15:10:18;33.40;16.00
19654;DHT22;9975;48.046;7.804;2023-06-01T15:12:43;33.40;16.40
19654;DHT22;9975;48.046;7.804;2023-06-01T15:15:09;33.40;16.20
19654;DHT22;9975;48.046;7.804;2023-06-01T15:17:35;33.00;17.00
19654;DHT22;9975;48.046;7.804;2023-06-01T15:20:01;33.20;17.10
19654;DHT22;9975;48.046;7.804;2023-06-01T15:22:26;33.30;16.90
19654;DHT22;9975;48.046;7.804;2023-06-01T15:24:52;33.50;16.70
19654;DHT22;9975;48.046;7.804;2023-06-01T15:27:18;33.50;16.50
19654;DHT22;9975;48.046;7.804;2023-06-01T15:29:45;33.40;16.20
19654;DHT22;9975;48.046;7.804;2023-06-01T15:32:11;33.40;15.60
19654;DHT22;9975;48.046;7.804;2023-06-01T15:34:36;32.80;15.80
19654;DHT22;9975;48.046;7.804;2023-06-01T15:37:07;33.10;17.00
19654;DHT22;9975;48.046;7.804;2023-06-01T15:39:34;33.10;16.70
19654;DHT22;9975;48.046;7.804;2023-06-01T15:42:00;32.80;16.50
19654;DHT22;9975;48.046;7.804;2023-06-01T15:44:26;33.00;17.30
19654;DHT22;9975;48.046;7.804;2023-06-01T15:46:52;32.80;16.80
19654;DHT22;9975;48.046;7.804;2023-06-01T15:49:18;32.80;17.20
19654;DHT22;9975;48.046;7.804;2023-06-01T15:51:43;32.90;17.60
19654;DHT22;9975;48.046;7.804;2023-06-01T15:54:09;32.90;17.50
19654;DHT22;9975;48.046;7.804;2023-06-01T15:56:35;32.90;16.90
19654;DHT22;9975;48.046;7.804;2023-06-01T15:59:00;32.80;16.90
19654;DHT22;9975;48.046;7.804;2023-06-01T16:01:26;32.60;16.30
19654;DHT22;9975;48.046;7.804;2023-06-01T16:03:52;32.30;16.80
19654;DHT22;9975;48.046;7.804;2023-06-01T16:06:17;32.50;17.30
19654;DHT22;9975;48.046;7.804;2023-06-01T16:08:43;32.70;17.10
19654;DHT22;9975;48.046;7.804;2023-06-01T16:11:09;32.60;17.10
19654;DHT22;9975;48.046;7.804;2023-06-01T16:13:34;32.50;17.40
19654;DHT22;9975;48.046;7.804;2023-06-01T16:16:00;32.30;17.80
19654;DHT22;9975;48.046;7.804;2023-06-01T16:18:26;32.20;17.70
19654;DHT22;9975;48.046;7.804;2023-06-01T16:20:51;31.90;18.00
19654;DHT22;9975;48.046;7.804;2023-06-01T16:23:17;31.90;18.00
19654;DHT22;9975;48.046;7.804;2023-06-01T16:25:43;31.90;18.90
19654;DHT22;9975;48.046;7.804;2023-06-01T16:28:08;31.90;18.20
19654;DHT22;9975;48.046;7.804;2023-06-01T16:30:34;31.80;18.10
19654;DHT22;9975;48.046;7.804;2023-06-01T16:32:59;31.60;18.10
19654;DHT22;9975;48.046;7.804;2023-06-01T16:35:25;31.50;18.30
19654;DHT22;9975;48.046;7.804;2023-06-01T16:37:52;31.40;18.20
19654;DHT22;9975;48.046;7.804;2023-06-01T16:40:17;31.30;18.70
19654;DHT22;9975;48.046;7.804;2023-06-01T16:42:44;31.10;18.90
19654;DHT22;9975;48.046;7.804;2023-06-01T16:45:10;31.10;18.90
19654;DHT22;9975;48.046;7.804;2023-06-01T16:47:36;31.00;18.90
19654;DHT22;9975;48.046;7.804;2023-06-01T16:50:01;30.90;18.50
19654;DHT22;9975;48.046;7.804;2023-06-01T16:52:27;30.80;18.90
19654;DHT22;9975;48.046;7.804;2023-06-01T16:54:53;30.90;18.60
19654;DHT22;9975;48.046;7.804;2023-06-01T16:57:21;30.60;18.70
19654;DHT22;9975;48.046;7.804;2023-06-01T16:59:50;30.30;18.80
19654;DHT22;9975;48.046;7.804;2023-06-01T17:02:16;30.10;19.30
19654;DHT22;9975;48.046;7.804;2023-06-01T17:04:41;29.90;19.50
19654;DHT22;9975;48.046;7.804;2023-06-01T17:07:07;30.00;19.70
19654;DHT22;9975;48.046;7.804;2023-06-01T17:09:33;30.10;19.40
19654;DHT22;9975;48.046;7.804;2023-06-01T17:11:58;30.20;19.40
19654;DHT22;9975;48.046;7.804;2023-06-01T17:14:24;30.20;19.20
19654;DHT22;9975;48.046;7.804;2023-06-01T17:16:50;30.20;19.20
19654;DHT22;9975;48.046;7.804;2023-06-01T17:19:15;30.00;19.20
19654;DHT22;9975;48.046;7.804;2023-06-01T17:21:41;30.10;19.30
19654;DHT22;9975;48.046;7.804;2023-06-01T17:24:06;30.00;19.70
19654;DHT22;9975;48.046;7.804;2023-06-01T17:26:32;29.90;19.60
19654;DHT22;9975;48.046;7.804;2023-06-01T17:28:58;29.90;19.70
19654;DHT22;9975;48.046;7.804;2023-06-01T17:31:23;29.70;20.10
19654;DHT22;9975;48.046;7.804;2023-06-01T17:33:49;29.60;20.40
19654;DHT22;9975;48.046;7.804;2023-06-01T17:36:15;29.50;20.60
19654;DHT22;9975;48.046;7.804;2023-06-01T17:38:40;29.50;20.40
19654;DHT22;9975;48.046;7.804;2023-06-01T17:41:06;29.50;20.50
19654;DHT22;9975;48.046;7.804;2023-06-01T17:43:32;29.60;20.50
19654;DHT22;9975;48.046;7.804;2023-06-01T17:45:58;29.50;20.20
19654;DHT22;9975;48.046;7.804;2023-06-01T17:48:23;29.40;20.20
19654;DHT22;9975;48.046;7.804;2023-06-01T17:50:49;29.20;20.40
19654;DHT22;9975;48.046;7.804;2023-06-01T17:53:15;29.10;20.50
19654;DHT22;9975;48.046;7.804;2023-06-01T17:55:41;28.90;20.60
19654;DHT22;9975;48.046;7.804;2023-06-01T17:58:07;28.80;21.30
19654;DHT22;9975;48.046;7.804;2023-06-01T18:00:33;28.70;20.90
19654;DHT22;9975;48.046;7.804;2023-06-01T18:02:59;28.70;20.90
19654;DHT22;9975;48.046;7.804;2023-06-01T18:05:25;28.60;20.80
19654;DHT22;9975;48.046;7.804;2023-06-01T18:07:50;28.50;20.90